sensor_id;sensor_type;location;lat;lon;timestamp;P1;durP1;ratioP1;P2;durP2;ratioP2
17854;SDS011;9053;53.358;6.382;2022-12-08T00:02:17;1.17;;;0.60;;
17854;SDS011;9053;53.358;6.382;2022-12-08T00:04:47;2.20;;;0.90;;
17854;SDS011;9053;53.358;6.382;2022-12-08T00:07:33;1.63;;;0.70;;
17854;SDS011;9053;53.358;6.382;2022-12-08T00:10:15;3.23;;;1.00;;
17854;SDS011;9053;53.358;6.382;2022-12-08T00:13:05;1.80;;;0.80;;
17854;SDS011;9053;53.358;6.382;2022-12-08T00:15:34;2.10;;;1.00;;
17854;SDS011;9053;53.358;6.382;2022-12-08T00:18:04;1.57;;;0.80;;
17854;SDS011;9053;53.358;6.382;2022-12-08T00:20:34;1.43;;;0.80;;
17854;SDS011;9053;53.358;6.382;2022-12-08T00:23:07;1.10;;;0.70;;
17854;SDS011;9053;53.358;6.382;2022-12-08T00:25:36;2.17;;;1.10;;
17854;SDS011;9053;53.358;6.382;2022-12-08T00:28:06;1.43;;;0.90;;
17854;SDS011;9053;53.358;6.382;2022-12-08T00:30:38;3.73;;;0.80;;
17854;SDS011;9053;53.358;6.382;2022-12-08T00:33:08;4.17;;;0.97;;
17854;SDS011;9053;53.358;6.382;2022-12-08T00:35:38;3.20;;;1.00;;
17854;SDS011;9053;53.358;6.382;2022-12-08T00:38:11;2.77;;;1.00;;
17854;SDS011;9053;53.358;6.382;2022-12-08T00:40:42;1.43;;;0.90;;
17854;SDS011;9053;53.358;6.382;2022-12-08T00:43:13;3.17;;;1.20;;
17854;SDS011;9053;53.358;6.382;2022-12-08T00:45:43;3.03;;;0.97;;
17854;SDS011;9053;53.358;6.382;2022-12-08T00:48:13;3.03;;;0.97;;
17854;SDS011;9053;53.358;6.382;2022-12-08T00:50:45;3.30;;;0.80;;
17854;SDS011;9053;53.358;6.382;2022-12-08T00:53:17;3.47;;;0.93;;
17854;SDS011;9053;53.358;6.382;2022-12-08T00:55:47;2.83;;;0.80;;
17854;SDS011;9053;53.358;6.382;2022-12-08T00:58:16;2.73;;;0.93;;
17854;SDS011;9053;53.358;6.382;2022-12-08T01:00:46;2.70;;;0.87;;
17854;SDS011;9053;53.358;6.382;2022-12-08T01:03:16;1.83;;;0.90;;
17854;SDS011;9053;53.358;6.382;2022-12-08T01:05:46;1.73;;;0.80;;
17854;SDS011;9053;53.358;6.382;2022-12-08T01:08:18;2.17;;;0.80;;
17854;SDS011;9053;53.358;6.382;2022-12-08T01:10:48;0.77;;;0.70;;
17854;SDS011;9053;53.358;6.382;2022-12-08T01:13:18;1.63;;;0.87;;
17854;SDS011;9053;53.358;6.382;2022-12-08T01:15:47;0.50;;;0.50;;
17854;SDS011;9053;53.358;6.382;2022-12-08T01:18:18;1.80;;;0.70;;
17854;SDS011;9053;53.358;6.382;2022-12-08T01:20:48;1.17;;;0.80;;
17854;SDS011;9053;53.358;6.382;2022-12-08T01:23:22;3.07;;;0.90;;
17854;SDS011;9053;53.358;6.382;2022-12-08T01:25:52;2.00;;;0.60;;
17854;SDS011;9053;53.358;6.382;2022-12-08T01:28:22;1.70;;;0.80;;
17854;SDS011;9053;53.358;6.382;2022-12-08T01:30:51;2.37;;;0.97;;
17854;SDS011;9053;53.358;6.382;2022-12-08T01:33:21;1.00;;;0.70;;
17854;SDS011;9053;53.358;6.382;2022-12-08T01:35:51;2.17;;;0.67;;
17854;SDS011;9053;53.358;6.382;2022-12-08T01:38:24;2.33;;;0.87;;
17854;SDS011;9053;53.358;6.382;2022-12-08T01:40:54;3.37;;;0.80;;
17854;SDS011;9053;53.358;6.382;2022-12-08T01:43:24;2.20;;;0.90;;
17854;SDS011;9053;53.358;6.382;2022-12-08T01:45:54;1.40;;;0.80;;
17854;SDS011;9053;53.358;6.382;2022-12-08T01:48:24;1.97;;;0.70;;
17854;SDS011;9053;53.358;6.382;2022-12-08T01:50:56;2.63;;;0.67;;
17854;SDS011;9053;53.358;6.382;2022-12-08T01:53:30;2.00;;;0.70;;
17854;SDS011;9053;53.358;6.382;2022-12-08T01:56:02;1.23;;;0.60;;
17854;SDS011;9053;53.358;6.382;2022-12-08T01:58:38;3.13;;;0.80;;
17854;SDS011;9053;53.358;6.382;2022-12-08T02:01:10;2.37;;;0.70;;
17854;SDS011;9053;53.358;6.382;2022-12-08T02:03:41;1.00;;;0.60;;
17854;SDS011;9053;53.358;6.382;2022-12-08T02:06:13;4.27;;;0.80;;
17854;SDS011;9053;53.358;6.382;2022-12-08T02:08:47;2.80;;;0.90;;
17854;SDS011;9053;53.358;6.382;2022-12-08T02:11:17;2.37;;;0.90;;
17854;SDS011;9053;53.358;6.382;2022-12-08T02:13:47;1.70;;;0.60;;
17854;SDS011;9053;53.358;6.382;2022-12-08T02:16:24;1.83;;;0.80;;
17854;SDS011;9053;53.358;6.382;2022-12-08T02:22:19;1.67;;;0.73;;
17854;SDS011;9053;53.358;6.382;2022-12-08T02:24:58;1.93;;;0.70;;
17854;SDS011;9053;53.358;6.382;2022-12-08T02:27:39;1.67;;;0.50;;
17854;SDS011;9053;53.358;6.382;2022-12-08T02:30:18;1.07;;;0.50;;
17854;SDS011;9053;53.358;6.382;2022-12-08T02:35:58;1.70;;;0.70;;
17854;SDS011;9053;53.358;6.382;2022-12-08T02:38:44;1.93;;;0.50;;
17854;SDS011;9053;53.358;6.382;2022-12-08T02:41:24;1.33;;;0.70;;
17854;SDS011;9053;53.358;6.382;2022-12-08T02:44:05;2.20;;;0.80;;
17854;SDS011;9053;53.358;6.382;2022-12-08T02:46:42;1.70;;;0.70;;
17854;SDS011;9053;53.358;6.382;2022-12-08T02:49:16;1.03;;;0.60;;
17854;SDS011;9053;53.358;6.382;2022-12-08T02:51:49;2.07;;;0.53;;
17854;SDS011;9053;53.358;6.382;2022-12-08T02:54:18;2.00;;;0.60;;
17854;SDS011;9053;53.358;6.382;2022-12-08T02:56:52;1.03;;;0.60;;
17854;SDS011;9053;53.358;6.382;2022-12-08T02:59:37;1.00;;;0.50;;
17854;SDS011;9053;53.358;6.382;2022-12-08T03:02:26;1.80;;;0.70;;
17854;SDS011;9053;53.358;6.382;2022-12-08T03:05:09;0.83;;;0.70;;
17854;SDS011;9053;53.358;6.382;2022-12-08T03:07:52;1.40;;;0.57;;
17854;SDS011;9053;53.358;6.382;2022-12-08T03:10:30;1.50;;;0.53;;
17854;SDS011;9053;53.358;6.382;2022-12-08T03:13:06;1.17;;;0.70;;
17854;SDS011;9053;53.358;6.382;2022-12-08T03:15:41;1.43;;;0.63;;
17854;SDS011;9053;53.358;6.382;2022-12-08T03:18:14;0.90;;;0.80;;
17854;SDS011;9053;53.358;6.382;2022-12-08T03:20:45;2.93;;;0.80;;
17854;SDS011;9053;53.358;6.382;2022-12-08T03:23:19;2.30;;;1.00;;
17854;SDS011;9053;53.358;6.382;2022-12-08T03:25:53;1.87;;;0.60;;
17854;SDS011;9053;53.358;6.382;2022-12-08T03:28:29;1.30;;;0.70;;
17854;SDS011;9053;53.358;6.382;2022-12-08T03:31:01;4.57;;;0.80;;
17854;SDS011;9053;53.358;6.382;2022-12-08T03:33:36;1.57;;;0.87;;
17854;SDS011;9053;53.358;6.382;2022-12-08T03:36:09;0.83;;;0.70;;
17854;SDS011;9053;53.358;6.382;2022-12-08T03:38:44;2.67;;;0.97;;
17854;SDS011;9053;53.358;6.382;2022-12-08T03:41:18;0.97;;;0.80;;
17854;SDS011;9053;53.358;6.382;2022-12-08T03:43:50;1.00;;;0.90;;
17854;SDS011;9053;53.358;6.382;2022-12-08T03:46:21;3.00;;;0.70;;
17854;SDS011;9053;53.358;6.382;2022-12-08T03:48:51;2.47;;;0.90;;
17854;SDS011;9053;53.358;6.382;2022-12-08T03:51:22;1.40;;;0.70;;
17854;SDS011;9053;53.358;6.382;2022-12-08T03:53:55;0.97;;;0.60;;
17854;SDS011;9053;53.358;6.382;2022-12-08T03:56:27;2.07;;;0.83;;
17854;SDS011;9053;53.358;6.382;2022-12-08T03:58:57;3.03;;;0.70;;
17854;SDS011;9053;53.358;6.382;2022-12-08T04:01:27;1.70;;;0.63;;
17854;SDS011;9053;53.358;6.382;2022-12-08T04:03:57;1.50;;;0.80;;
17854;SDS011;9053;53.358;6.382;2022-12-08T04:06:27;1.60;;;0.70;;
17854;SDS011;9053;53.358;6.382;2022-12-08T04:08:59;1.77;;;0.60;;
17854;SDS011;9053;53.358;6.382;2022-12-08T04:11:29;1.50;;;0.90;;
17854;SDS011;9053;53.358;6.382;2022-12-08T04:13:59;1.87;;;0.80;;
17854;SDS011;9053;53.358;6.382;2022-12-08T04:16:29;1.53;;;0.70;;
17854;SDS011;9053;53.358;6.382;2022-12-08T04:18:59;0.63;;;0.60;;
17854;SDS011;9053;53.358;6.382;2022-12-08T04:21:28;1.23;;;0.60;;
17854;SDS011;9053;53.358;6.382;2022-12-08T04:24:01;2.97;;;0.80;;
17854;SDS011;9053;53.358;6.382;2022-12-08T04:26:31;2.27;;;0.67;;
17854;SDS011;9053;53.358;6.382;2022-12-08T04:29:01;1.50;;;0.80;;
17854;SDS011;9053;53.358;6.382;2022-12-08T04:31:31;1.27;;;0.50;;
17854;SDS011;9053;53.358;6.382;2022-12-08T04:34:01;2.67;;;0.50;;
17854;SDS011;9053;53.358;6.382;2022-12-08T04:36:30;2.00;;;0.67;;
17854;SDS011;9053;53.358;6.382;2022-12-08T04:39:03;0.60;;;0.50;;
17854;SDS011;9053;53.358;6.382;2022-12-08T04:41:33;0.73;;;0.50;;
17854;SDS011;9053;53.358;6.382;2022-12-08T04:44:03;1.30;;;0.67;;
17854;SDS011;9053;53.358;6.382;2022-12-08T04:46:33;0.63;;;0.60;;
17854;SDS011;9053;53.358;6.382;2022-12-08T04:49:08;1.00;;;0.73;;
17854;SDS011;9053;53.358;6.382;2022-12-08T04:51:38;1.77;;;0.60;;
17854;SDS011;9053;53.358;6.382;2022-12-08T04:54:10;1.63;;;0.60;;
17854;SDS011;9053;53.358;6.382;2022-12-08T04:56:40;2.57;;;0.80;;
17854;SDS011;9053;53.358;6.382;2022-12-08T04:59:10;1.73;;;0.80;;
17854;SDS011;9053;53.358;6.382;2022-12-08T05:01:40;0.83;;;0.50;;
17854;SDS011;9053;53.358;6.382;2022-12-08T05:04:10;0.80;;;0.60;;
17854;SDS011;9053;53.358;6.382;2022-12-08T05:06:40;0.50;;;0.50;;
17854;SDS011;9053;53.358;6.382;2022-12-08T05:09:13;1.30;;;0.70;;
17854;SDS011;9053;53.358;6.382;2022-12-08T05:11:43;0.47;;;0.47;;
17854;SDS011;9053;53.358;6.382;2022-12-08T05:14:15;0.63;;;0.63;;
17854;SDS011;9053;53.358;6.382;2022-12-08T05:16:46;1.13;;;0.70;;
17854;SDS011;9053;53.358;6.382;2022-12-08T05:19:16;1.07;;;0.60;;
17854;SDS011;9053;53.358;6.382;2022-12-08T05:21:46;2.33;;;0.50;;
17854;SDS011;9053;53.358;6.382;2022-12-08T05:24:18;2.20;;;0.70;;
17854;SDS011;9053;53.358;6.382;2022-12-08T05:26:48;1.40;;;0.70;;
17854;SDS011;9053;53.358;6.382;2022-12-08T05:29:18;3.40;;;0.70;;
17854;SDS011;9053;53.358;6.382;2022-12-08T05:31:48;0.93;;;0.60;;
17854;SDS011;9053;53.358;6.382;2022-12-08T05:34:17;0.73;;;0.60;;
17854;SDS011;9053;53.358;6.382;2022-12-08T05:36:47;0.67;;;0.67;;
17854;SDS011;9053;53.358;6.382;2022-12-08T05:39:20;1.07;;;0.60;;
17854;SDS011;9053;53.358;6.382;2022-12-08T05:41:49;0.77;;;0.53;;
17854;SDS011;9053;53.358;6.382;2022-12-08T05:44:19;2.10;;;0.70;;
17854;SDS011;9053;53.358;6.382;2022-12-08T05:46:49;1.13;;;0.73;;
17854;SDS011;9053;53.358;6.382;2022-12-08T05:49:19;1.67;;;0.73;;
17854;SDS011;9053;53.358;6.382;2022-12-08T05:51:49;1.43;;;0.60;;
17854;SDS011;9053;53.358;6.382;2022-12-08T05:54:21;1.30;;;0.80;;
17854;SDS011;9053;53.358;6.382;2022-12-08T05:56:51;2.57;;;0.90;;
17854;SDS011;9053;53.358;6.382;2022-12-08T05:59:21;3.27;;;1.00;;
17854;SDS011;9053;53.358;6.382;2022-12-08T06:01:51;1.43;;;0.60;;
17854;SDS011;9053;53.358;6.382;2022-12-08T06:04:21;2.63;;;0.70;;
17854;SDS011;9053;53.358;6.382;2022-12-08T06:06:51;1.10;;;0.83;;
17854;SDS011;9053;53.358;6.382;2022-12-08T06:09:23;2.77;;;0.73;;
17854;SDS011;9053;53.358;6.382;2022-12-08T06:11:53;2.53;;;0.80;;
17854;SDS011;9053;53.358;6.382;2022-12-08T06:14:23;1.57;;;0.90;;
17854;SDS011;9053;53.358;6.382;2022-12-08T06:16:53;1.83;;;0.87;;
17854;SDS011;9053;53.358;6.382;2022-12-08T06:19:23;1.33;;;0.60;;
17854;SDS011;9053;53.358;6.382;2022-12-08T06:21:53;2.10;;;0.60;;
17854;SDS011;9053;53.358;6.382;2022-12-08T06:24:25;0.60;;;0.60;;
17854;SDS011;9053;53.358;6.382;2022-12-08T06:26:55;2.00;;;0.80;;
17854;SDS011;9053;53.358;6.382;2022-12-08T06:29:25;1.20;;;0.80;;
17854;SDS011;9053;53.358;6.382;2022-12-08T06:31:57;1.20;;;0.70;;
17854;SDS011;9053;53.358;6.382;2022-12-08T06:34:27;1.37;;;0.90;;
17854;SDS011;9053;53.358;6.382;2022-12-08T06:36:57;2.83;;;0.70;;
17854;SDS011;9053;53.358;6.382;2022-12-08T06:39:29;1.10;;;0.77;;
17854;SDS011;9053;53.358;6.382;2022-12-08T06:41:59;1.83;;;0.90;;
17854;SDS011;9053;53.358;6.382;2022-12-08T06:44:41;0.97;;;0.80;;
17854;SDS011;9053;53.358;6.382;2022-12-08T06:47:11;1.90;;;1.07;;
17854;SDS011;9053;53.358;6.382;2022-12-08T06:49:41;1.63;;;0.90;;
17854;SDS011;9053;53.358;6.382;2022-12-08T06:52:11;1.57;;;0.90;;
17854;SDS011;9053;53.358;6.382;2022-12-08T06:54:43;2.27;;;1.17;;
17854;SDS011;9053;53.358;6.382;2022-12-08T06:57:13;0.90;;;0.80;;
17854;SDS011;9053;53.358;6.382;2022-12-08T06:59:44;1.00;;;0.70;;
17854;SDS011;9053;53.358;6.382;2022-12-08T07:02:14;1.30;;;1.10;;
17854;SDS011;9053;53.358;6.382;2022-12-08T07:04:43;3.07;;;1.00;;
17854;SDS011;9053;53.358;6.382;2022-12-08T07:07:13;1.20;;;0.60;;
17854;SDS011;9053;53.358;6.382;2022-12-08T07:09:46;0.63;;;0.60;;
17854;SDS011;9053;53.358;6.382;2022-12-08T07:12:16;0.80;;;0.80;;
17854;SDS011;9053;53.358;6.382;2022-12-08T07:14:46;2.13;;;1.10;;
17854;SDS011;9053;53.358;6.382;2022-12-08T07:17:15;2.27;;;1.37;;
17854;SDS011;9053;53.358;6.382;2022-12-08T07:19:45;1.87;;;1.13;;
17854;SDS011;9053;53.358;6.382;2022-12-08T07:22:15;2.07;;;0.87;;
17854;SDS011;9053;53.358;6.382;2022-12-08T07:24:48;1.00;;;0.80;;
17854;SDS011;9053;53.358;6.382;2022-12-08T07:27:18;1.47;;;1.07;;
17854;SDS011;9053;53.358;6.382;2022-12-08T07:29:47;1.03;;;1.00;;
17854;SDS011;9053;53.358;6.382;2022-12-08T07:32:17;1.90;;;1.00;;
17854;SDS011;9053;53.358;6.382;2022-12-08T07:34:47;1.17;;;1.07;;
17854;SDS011;9053;53.358;6.382;2022-12-08T07:37:17;1.17;;;1.03;;
17854;SDS011;9053;53.358;6.382;2022-12-08T07:39:49;1.73;;;0.90;;
17854;SDS011;9053;53.358;6.382;2022-12-08T07:42:19;2.00;;;1.20;;
17854;SDS011;9053;53.358;6.382;2022-12-08T07:44:49;1.97;;;0.90;;
17854;SDS011;9053;53.358;6.382;2022-12-08T07:47:19;1.37;;;1.10;;
17854;SDS011;9053;53.358;6.382;2022-12-08T07:49:48;1.33;;;0.90;;
17854;SDS011;9053;53.358;6.382;2022-12-08T07:52:18;1.20;;;1.10;;
17854;SDS011;9053;53.358;6.382;2022-12-08T07:54:52;2.27;;;1.30;;
17854;SDS011;9053;53.358;6.382;2022-12-08T07:57:21;4.27;;;1.20;;
17854;SDS011;9053;53.358;6.382;2022-12-08T07:59:51;5.00;;;1.40;;
17854;SDS011;9053;53.358;6.382;2022-12-08T08:02:21;4.90;;;1.03;;
17854;SDS011;9053;53.358;6.382;2022-12-08T08:04:51;3.83;;;1.10;;
17854;SDS011;9053;53.358;6.382;2022-12-08T08:07:21;1.53;;;0.83;;
17854;SDS011;9053;53.358;6.382;2022-12-08T08:09:54;1.60;;;0.93;;
17854;SDS011;9053;53.358;6.382;2022-12-08T08:12:23;2.57;;;0.87;;
17854;SDS011;9053;53.358;6.382;2022-12-08T08:14:57;1.07;;;0.73;;
17854;SDS011;9053;53.358;6.382;2022-12-08T08:17:28;1.50;;;1.10;;
17854;SDS011;9053;53.358;6.382;2022-12-08T08:19:58;0.93;;;0.67;;
17854;SDS011;9053;53.358;6.382;2022-12-08T08:22:29;1.90;;;0.60;;
17854;SDS011;9053;53.358;6.382;2022-12-08T08:25:01;2.20;;;1.00;;
17854;SDS011;9053;53.358;6.382;2022-12-08T08:27:31;1.90;;;0.90;;
17854;SDS011;9053;53.358;6.382;2022-12-08T08:30:01;2.27;;;1.23;;
17854;SDS011;9053;53.358;6.382;2022-12-08T08:32:32;15.27;;;8.93;;
17854;SDS011;9053;53.358;6.382;2022-12-08T08:35:03;7.93;;;2.90;;
17854;SDS011;9053;53.358;6.382;2022-12-08T08:37:35;3.83;;;1.87;;
17854;SDS011;9053;53.358;6.382;2022-12-08T08:40:13;3.10;;;2.60;;
17854;SDS011;9053;53.358;6.382;2022-12-08T08:42:43;3.37;;;2.10;;
17854;SDS011;9053;53.358;6.382;2022-12-08T08:45:13;6.03;;;2.83;;
17854;SDS011;9053;53.358;6.382;2022-12-08T08:47:43;2.70;;;2.50;;
17854;SDS011;9053;53.358;6.382;2022-12-08T08:50:13;3.93;;;2.10;;
17854;SDS011;9053;53.358;6.382;2022-12-08T08:52:42;2.33;;;1.40;;
17854;SDS011;9053;53.358;6.382;2022-12-08T08:55:15;3.37;;;1.20;;
17854;SDS011;9053;53.358;6.382;2022-12-08T08:57:45;2.40;;;1.37;;
17854;SDS011;9053;53.358;6.382;2022-12-08T09:00:15;2.57;;;1.10;;
17854;SDS011;9053;53.358;6.382;2022-12-08T09:02:46;2.57;;;1.30;;
17854;SDS011;9053;53.358;6.382;2022-12-08T09:05:15;1.80;;;1.10;;
17854;SDS011;9053;53.358;6.382;2022-12-08T09:07:45;1.93;;;0.73;;
17854;SDS011;9053;53.358;6.382;2022-12-08T09:10:18;2.20;;;0.93;;
17854;SDS011;9053;53.358;6.382;2022-12-08T09:12:47;1.33;;;1.00;;
17854;SDS011;9053;53.358;6.382;2022-12-08T09:15:17;1.80;;;0.90;;
17854;SDS011;9053;53.358;6.382;2022-12-08T09:17:47;1.83;;;1.00;;
17854;SDS011;9053;53.358;6.382;2022-12-08T09:20:17;2.43;;;1.20;;
17854;SDS011;9053;53.358;6.382;2022-12-08T09:22:46;3.43;;;1.30;;
17854;SDS011;9053;53.358;6.382;2022-12-08T09:25:19;1.53;;;1.13;;
17854;SDS011;9053;53.358;6.382;2022-12-08T09:27:48;1.40;;;1.00;;
17854;SDS011;9053;53.358;6.382;2022-12-08T09:30:18;1.40;;;0.90;;
17854;SDS011;9053;53.358;6.382;2022-12-08T09:32:48;1.80;;;1.00;;
17854;SDS011;9053;53.358;6.382;2022-12-08T09:35:18;2.43;;;1.23;;
17854;SDS011;9053;53.358;6.382;2022-12-08T09:37:48;1.37;;;1.00;;
17854;SDS011;9053;53.358;6.382;2022-12-08T09:40:20;2.50;;;1.10;;
17854;SDS011;9053;53.358;6.382;2022-12-08T09:42:54;1.43;;;0.90;;
17854;SDS011;9053;53.358;6.382;2022-12-08T09:45:29;0.80;;;0.80;;
17854;SDS011;9053;53.358;6.382;2022-12-08T09:48:04;2.10;;;0.90;;
17854;SDS011;9053;53.358;6.382;2022-12-08T09:50:41;1.93;;;1.07;;
17854;SDS011;9053;53.358;6.382;2022-12-08T09:53:16;1.37;;;0.90;;
17854;SDS011;9053;53.358;6.382;2022-12-08T09:56:03;1.63;;;0.80;;
17854;SDS011;9053;53.358;6.382;2022-12-08T09:58:39;1.53;;;0.77;;
17854;SDS011;9053;53.358;6.382;2022-12-08T10:01:18;2.53;;;0.83;;
17854;SDS011;9053;53.358;6.382;2022-12-08T10:03:49;3.67;;;0.90;;
17854;SDS011;9053;53.358;6.382;2022-12-08T10:06:24;1.63;;;0.60;;
17854;SDS011;9053;53.358;6.382;2022-12-08T10:09:02;2.23;;;0.90;;
17854;SDS011;9053;53.358;6.382;2022-12-08T10:11:55;2.40;;;0.93;;
17854;SDS011;9053;53.358;6.382;2022-12-08T10:14:30;1.70;;;0.90;;
17854;SDS011;9053;53.358;6.382;2022-12-08T10:17:09;4.73;;;1.00;;
17854;SDS011;9053;53.358;6.382;2022-12-08T10:19:43;3.13;;;0.73;;
17854;SDS011;9053;53.358;6.382;2022-12-08T10:22:17;2.20;;;1.20;;
17854;SDS011;9053;53.358;6.382;2022-12-08T10:24:51;3.27;;;1.10;;
17854;SDS011;9053;53.358;6.382;2022-12-08T10:27:29;5.23;;;0.90;;
17854;SDS011;9053;53.358;6.382;2022-12-08T10:30:05;1.03;;;0.80;;
17854;SDS011;9053;53.358;6.382;2022-12-08T10:32:39;2.40;;;0.80;;
17854;SDS011;9053;53.358;6.382;2022-12-08T10:35:15;0.90;;;0.77;;
17854;SDS011;9053;53.358;6.382;2022-12-08T10:37:53;0.70;;;0.60;;
17854;SDS011;9053;53.358;6.382;2022-12-08T10:40:25;1.80;;;0.90;;
17854;SDS011;9053;53.358;6.382;2022-12-08T10:42:59;0.87;;;0.87;;
17854;SDS011;9053;53.358;6.382;2022-12-08T10:45:34;7.60;;;1.20;;
17854;SDS011;9053;53.358;6.382;2022-12-08T10:48:12;4.33;;;1.20;;
17854;SDS011;9053;53.358;6.382;2022-12-08T10:50:46;1.90;;;1.03;;
17854;SDS011;9053;53.358;6.382;2022-12-08T10:53:21;3.37;;;1.10;;
17854;SDS011;9053;53.358;6.382;2022-12-08T10:56:04;2.37;;;1.20;;
17854;SDS011;9053;53.358;6.382;2022-12-08T10:58:38;1.50;;;0.90;;
17854;SDS011;9053;53.358;6.382;2022-12-08T11:01:10;2.50;;;1.17;;
17854;SDS011;9053;53.358;6.382;2022-12-08T11:03:44;2.47;;;1.17;;
17854;SDS011;9053;53.358;6.382;2022-12-08T11:06:16;2.50;;;1.20;;
17854;SDS011;9053;53.358;6.382;2022-12-08T11:08:48;2.47;;;1.50;;
17854;SDS011;9053;53.358;6.382;2022-12-08T11:11:20;2.83;;;1.57;;
17854;SDS011;9053;53.358;6.382;2022-12-08T11:13:57;1.77;;;0.93;;
17854;SDS011;9053;53.358;6.382;2022-12-08T11:16:33;3.00;;;1.00;;
17854;SDS011;9053;53.358;6.382;2022-12-08T11:19:04;2.43;;;1.33;;
17854;SDS011;9053;53.358;6.382;2022-12-08T11:21:35;1.60;;;0.90;;
17854;SDS011;9053;53.358;6.382;2022-12-08T11:27:03;1.33;;;0.97;;
17854;SDS011;9053;53.358;6.382;2022-12-08T11:29:36;2.17;;;0.80;;
17854;SDS011;9053;53.358;6.382;2022-12-08T11:32:06;2.70;;;1.10;;
17854;SDS011;9053;53.358;6.382;2022-12-08T11:34:41;1.87;;;0.90;;
17854;SDS011;9053;53.358;6.382;2022-12-08T11:37:14;1.00;;;0.77;;
17854;SDS011;9053;53.358;6.382;2022-12-08T11:39:55;3.40;;;0.90;;
17854;SDS011;9053;53.358;6.382;2022-12-08T11:42:32;0.87;;;0.70;;
17854;SDS011;9053;53.358;6.382;2022-12-08T11:45:16;2.03;;;0.97;;
17854;SDS011;9053;53.358;6.382;2022-12-08T11:47:55;0.80;;;0.70;;
17854;SDS011;9053;53.358;6.382;2022-12-08T11:50:36;0.70;;;0.70;;
17854;SDS011;9053;53.358;6.382;2022-12-08T11:53:16;1.10;;;0.70;;
17854;SDS011;9053;53.358;6.382;2022-12-08T11:55:52;0.90;;;0.70;;
17854;SDS011;9053;53.358;6.382;2022-12-08T11:58:30;6.13;;;5.73;;
17854;SDS011;9053;53.358;6.382;2022-12-08T12:01:10;1.53;;;0.73;;
17854;SDS011;9053;53.358;6.382;2022-12-08T12:03:48;0.67;;;0.60;;
17854;SDS011;9053;53.358;6.382;2022-12-08T12:06:33;1.60;;;0.70;;
17854;SDS011;9053;53.358;6.382;2022-12-08T12:09:23;0.90;;;0.70;;
17854;SDS011;9053;53.358;6.382;2022-12-08T12:12:05;1.80;;;1.10;;
17854;SDS011;9053;53.358;6.382;2022-12-08T12:17:49;1.67;;;1.03;;
17854;SDS011;9053;53.358;6.382;2022-12-08T12:20:23;2.00;;;0.97;;
17854;SDS011;9053;53.358;6.382;2022-12-08T12:22:57;3.67;;;1.00;;
17854;SDS011;9053;53.358;6.382;2022-12-08T12:25:32;1.17;;;0.70;;
17854;SDS011;9053;53.358;6.382;2022-12-08T12:28:05;2.90;;;0.87;;
17854;SDS011;9053;53.358;6.382;2022-12-08T12:30:48;1.63;;;0.77;;
17854;SDS011;9053;53.358;6.382;2022-12-08T12:33:29;2.20;;;0.70;;
17854;SDS011;9053;53.358;6.382;2022-12-08T12:36:01;0.70;;;0.70;;
17854;SDS011;9053;53.358;6.382;2022-12-08T12:38:35;1.47;;;0.67;;
17854;SDS011;9053;53.358;6.382;2022-12-08T12:41:23;1.70;;;0.60;;
17854;SDS011;9053;53.358;6.382;2022-12-08T12:47:09;2.87;;;0.70;;
17854;SDS011;9053;53.358;6.382;2022-12-08T12:49:51;1.50;;;0.70;;
17854;SDS011;9053;53.358;6.382;2022-12-08T12:52:45;0.90;;;0.80;;
17854;SDS011;9053;53.358;6.382;2022-12-08T12:55:23;1.63;;;0.80;;
17854;SDS011;9053;53.358;6.382;2022-12-08T12:57:56;0.63;;;0.60;;
17854;SDS011;9053;53.358;6.382;2022-12-08T13:00:28;0.50;;;0.50;;
17854;SDS011;9053;53.358;6.382;2022-12-08T13:02:57;0.67;;;0.67;;
17854;SDS011;9053;53.358;6.382;2022-12-08T13:05:32;0.50;;;0.50;;
17854;SDS011;9053;53.358;6.382;2022-12-08T13:08:17;0.57;;;0.57;;
17854;SDS011;9053;53.358;6.382;2022-12-08T13:10:55;1.27;;;0.83;;
17854;SDS011;9053;53.358;6.382;2022-12-08T13:13:30;0.70;;;0.70;;
17854;SDS011;9053;53.358;6.382;2022-12-08T13:16:02;1.47;;;0.93;;
17854;SDS011;9053;53.358;6.382;2022-12-08T13:18:45;1.03;;;0.93;;
17854;SDS011;9053;53.358;6.382;2022-12-08T13:21:20;0.90;;;0.90;;
17854;SDS011;9053;53.358;6.382;2022-12-08T13:24:11;0.93;;;0.93;;
17854;SDS011;9053;53.358;6.382;2022-12-08T13:26:43;0.67;;;0.67;;
17854;SDS011;9053;53.358;6.382;2022-12-08T13:29:22;0.63;;;0.63;;
17854;SDS011;9053;53.358;6.382;2022-12-08T13:31:53;0.53;;;0.53;;
17854;SDS011;9053;53.358;6.382;2022-12-08T13:34:28;1.87;;;0.63;;
17854;SDS011;9053;53.358;6.382;2022-12-08T13:37:19;0.80;;;0.80;;
17854;SDS011;9053;53.358;6.382;2022-12-08T13:39:54;0.70;;;0.70;;
17854;SDS011;9053;53.358;6.382;2022-12-08T13:42:28;1.10;;;0.70;;
17854;SDS011;9053;53.358;6.382;2022-12-08T13:45:13;0.70;;;0.60;;
17854;SDS011;9053;53.358;6.382;2022-12-08T13:48:09;1.57;;;0.80;;
17854;SDS011;9053;53.358;6.382;2022-12-08T13:51:05;1.10;;;0.90;;
17854;SDS011;9053;53.358;6.382;2022-12-08T13:54:06;0.50;;;0.50;;
17854;SDS011;9053;53.358;6.382;2022-12-08T13:56:58;0.73;;;0.60;;
17854;SDS011;9053;53.358;6.382;2022-12-08T13:59:41;1.47;;;0.80;;
17854;SDS011;9053;53.358;6.382;2022-12-08T14:02:14;1.30;;;1.20;;
17854;SDS011;9053;53.358;6.382;2022-12-08T14:04:46;1.23;;;1.00;;
17854;SDS011;9053;53.358;6.382;2022-12-08T14:07:37;1.57;;;1.17;;
17854;SDS011;9053;53.358;6.382;2022-12-08T14:10:12;1.90;;;1.47;;
17854;SDS011;9053;53.358;6.382;2022-12-08T14:12:47;1.67;;;1.33;;
17854;SDS011;9053;53.358;6.382;2022-12-08T14:15:24;1.73;;;1.13;;
17854;SDS011;9053;53.358;6.382;2022-12-08T14:18:02;1.23;;;1.03;;
17854;SDS011;9053;53.358;6.382;2022-12-08T14:20:33;1.80;;;1.30;;
17854;SDS011;9053;53.358;6.382;2022-12-08T14:23:23;2.90;;;1.40;;
17854;SDS011;9053;53.358;6.382;2022-12-08T14:25:56;2.10;;;1.90;;
17854;SDS011;9053;53.358;6.382;2022-12-08T14:28:25;1.37;;;1.23;;
17854;SDS011;9053;53.358;6.382;2022-12-08T14:30:55;1.27;;;1.17;;
17854;SDS011;9053;53.358;6.382;2022-12-08T14:33:25;1.30;;;1.20;;
17854;SDS011;9053;53.358;6.382;2022-12-08T14:35:55;1.10;;;0.90;;
17854;SDS011;9053;53.358;6.382;2022-12-08T14:38:26;0.90;;;0.80;;
17854;SDS011;9053;53.358;6.382;2022-12-08T14:41:02;1.50;;;1.10;;
17854;SDS011;9053;53.358;6.382;2022-12-08T14:43:34;2.40;;;1.37;;
17854;SDS011;9053;53.358;6.382;2022-12-08T14:46:18;1.50;;;1.40;;
17854;SDS011;9053;53.358;6.382;2022-12-08T14:48:49;1.30;;;1.20;;
17854;SDS011;9053;53.358;6.382;2022-12-08T14:51:23;1.60;;;1.50;;
17854;SDS011;9053;53.358;6.382;2022-12-08T14:53:57;1.93;;;1.83;;
17854;SDS011;9053;53.358;6.382;2022-12-08T14:56:34;2.07;;;1.60;;
17854;SDS011;9053;53.358;6.382;2022-12-08T14:59:10;2.20;;;2.00;;
17854;SDS011;9053;53.358;6.382;2022-12-08T15:01:42;3.00;;;2.70;;
17854;SDS011;9053;53.358;6.382;2022-12-08T15:04:14;3.10;;;2.67;;
17854;SDS011;9053;53.358;6.382;2022-12-08T15:06:49;1.60;;;1.50;;
17854;SDS011;9053;53.358;6.382;2022-12-08T15:09:28;1.73;;;1.63;;
17854;SDS011;9053;53.358;6.382;2022-12-08T15:12:03;1.27;;;1.10;;
17854;SDS011;9053;53.358;6.382;2022-12-08T15:14:35;1.60;;;1.27;;
17854;SDS011;9053;53.358;6.382;2022-12-08T15:17:24;2.27;;;1.73;;
17854;SDS011;9053;53.358;6.382;2022-12-08T15:19:57;2.90;;;2.40;;
17854;SDS011;9053;53.358;6.382;2022-12-08T15:22:29;2.90;;;2.70;;
17854;SDS011;9053;53.358;6.382;2022-12-08T15:24:59;3.67;;;3.37;;
17854;SDS011;9053;53.358;6.382;2022-12-08T15:27:32;4.20;;;3.10;;
17854;SDS011;9053;53.358;6.382;2022-12-08T15:30:16;4.00;;;3.70;;
17854;SDS011;9053;53.358;6.382;2022-12-08T15:32:46;4.10;;;3.70;;
17854;SDS011;9053;53.358;6.382;2022-12-08T15:35:17;3.33;;;2.87;;
17854;SDS011;9053;53.358;6.382;2022-12-08T15:37:48;3.17;;;2.70;;
17854;SDS011;9053;53.358;6.382;2022-12-08T15:40:19;4.17;;;3.07;;
17854;SDS011;9053;53.358;6.382;2022-12-08T15:42:55;4.30;;;3.90;;
17854;SDS011;9053;53.358;6.382;2022-12-08T15:45:25;5.33;;;4.00;;
17854;SDS011;9053;53.358;6.382;2022-12-08T15:47:59;4.50;;;3.70;;
17854;SDS011;9053;53.358;6.382;2022-12-08T15:50:29;4.87;;;3.97;;
17854;SDS011;9053;53.358;6.382;2022-12-08T15:52:59;4.40;;;4.00;;
17854;SDS011;9053;53.358;6.382;2022-12-08T15:55:29;4.20;;;3.80;;